createdAt,value
2023-05-05T00:02:04.068Z,2.42
2023-05-05T00:04:30.514Z,2.10
2023-05-05T00:06:57.294Z,2.55
2023-05-05T00:09:23.750Z,2.17
2023-05-05T00:11:50.080Z,3.65
2023-05-05T00:14:16.452Z,2.70
2023-05-05T00:16:43.089Z,1.98
2023-05-05T00:19:09.523Z,2.58
2023-05-05T00:21:35.893Z,2.17
2023-05-05T00:24:02.308Z,2.28
2023-05-05T00:26:28.997Z,1.85
2023-05-05T00:28:55.408Z,1.92
2023-05-05T00:31:21.868Z,3.08
2023-05-05T00:33:48.223Z,1.60
2023-05-05T00:36:14.810Z,1.85
2023-05-05T00:38:41.210Z,2.10
2023-05-05T00:41:07.614Z,2.42
2023-05-05T00:43:34.700Z,3.00
2023-05-05T00:46:03.903Z,2.30
2023-05-05T00:48:30.639Z,2.00
2023-05-05T00:50:57.402Z,1.58
2023-05-05T00:53:24.922Z,1.73
2023-05-05T00:55:51.271Z,1.60
2023-05-05T00:58:18.075Z,1.43
2023-05-05T01:00:44.628Z,1.77
2023-05-05T01:03:12.953Z,1.52
2023-05-05T01:05:45.604Z,2.25
2023-05-05T01:08:32.299Z,1.90
2023-05-05T01:11:03.272Z,1.60
2023-05-05T01:13:37.242Z,3.42
2023-05-05T01:16:09.641Z,1.60
2023-05-05T01:18:41.598Z,1.77
2023-05-05T01:21:16.962Z,2.10
2023-05-05T01:23:58.459Z,2.10
2023-05-05T01:26:41.981Z,1.63
2023-05-05T01:29:28.291Z,1.58
2023-05-05T01:31:57.134Z,1.80
2023-05-05T01:34:26.062Z,3.67
2023-05-05T01:36:57.527Z,3.10
2023-05-05T01:39:27.157Z,1.75
2023-05-05T01:41:56.711Z,1.83
2023-05-05T01:44:24.029Z,2.05
2023-05-05T01:46:51.844Z,1.40
2023-05-05T01:49:18.238Z,1.80
2023-05-05T01:51:46.270Z,1.73
2023-05-05T01:54:13.528Z,2.85
2023-05-05T01:56:41.140Z,2.05
2023-05-05T01:59:07.817Z,2.33
2023-05-05T02:01:36.056Z,2.17
2023-05-05T02:04:03.345Z,2.08
2023-05-05T02:06:32.418Z,1.65
2023-05-05T02:08:59.159Z,2.67
2023-05-05T02:11:26.709Z,1.80
2023-05-05T02:13:53.601Z,1.43
2023-05-05T02:16:20.251Z,2.00
2023-05-05T02:18:47.321Z,3.33
2023-05-05T02:21:14.845Z,1.60
2023-05-05T02:23:41.209Z,2.80
2023-05-05T02:26:09.152Z,1.73
2023-05-05T02:28:42.138Z,1.58
2023-05-05T02:31:09.635Z,2.28
2023-05-05T02:33:36.941Z,1.58
2023-05-05T02:36:06.971Z,1.42
2023-05-05T02:38:33.954Z,1.60
2023-05-05T02:41:01.316Z,1.73
2023-05-05T02:43:29.602Z,3.22
2023-05-05T02:45:55.987Z,1.85
2023-05-05T02:48:22.400Z,1.65
2023-05-05T02:50:48.738Z,3.00
2023-05-05T02:53:15.162Z,2.33
2023-05-05T02:55:45.590Z,1.75
2023-05-05T02:58:17.005Z,3.08
2023-05-05T03:00:50.499Z,2.70
2023-05-05T03:03:26.032Z,2.88
2023-05-05T03:05:56.980Z,1.90
2023-05-05T03:08:28.171Z,1.48
2023-05-05T03:11:00.026Z,2.13
2023-05-05T03:13:26.882Z,1.88
2023-05-05T03:15:53.923Z,2.00
2023-05-05T03:18:21.166Z,1.67
2023-05-05T03:20:47.962Z,3.00
2023-05-05T03:23:14.617Z,1.45
2023-05-05T03:25:41.571Z,2.00
2023-05-05T03:28:07.897Z,1.53
2023-05-05T03:30:34.329Z,1.40
2023-05-05T03:33:00.703Z,1.40
2023-05-05T03:35:27.108Z,2.20
2023-05-05T03:37:55.485Z,1.67
2023-05-05T03:40:32.668Z,1.90
2023-05-05T03:43:08.021Z,2.75
2023-05-05T03:45:34.460Z,1.83
2023-05-05T03:48:00.827Z,1.73
2023-05-05T03:50:27.243Z,1.52
2023-05-05T03:52:53.577Z,1.77
2023-05-05T03:55:19.949Z,1.75
2023-05-05T03:57:46.304Z,1.48
2023-05-05T04:00:12.939Z,1.70
2023-05-05T04:02:39.385Z,1.83
2023-05-05T04:05:05.805Z,2.00
2023-05-05T04:07:32.159Z,1.95
2023-05-05T04:09:58.532Z,1.30
2023-05-05T04:12:24.912Z,1.63
2023-05-05T04:14:51.311Z,1.90
2023-05-05T04:17:17.653Z,2.27
2023-05-05T04:19:44.009Z,1.63
2023-05-05T04:22:10.451Z,1.25
2023-05-05T04:24:37.235Z,1.45
2023-05-05T04:27:03.688Z,1.95
2023-05-05T04:29:30.027Z,1.83
2023-05-05T04:31:56.792Z,1.30
2023-05-05T04:34:23.212Z,1.48
2023-05-05T04:36:49.608Z,1.52
2023-05-05T04:39:16.041Z,1.85
2023-05-05T04:41:42.390Z,1.90
2023-05-05T04:44:08.737Z,1.95
2023-05-05T04:46:35.205Z,1.35
2023-05-05T04:49:03.387Z,1.63
2023-05-05T04:51:29.720Z,1.40
2023-05-05T04:53:56.063Z,2.03
2023-05-05T04:56:22.459Z,1.58
2023-05-05T04:58:49.809Z,1.55
2023-05-05T05:01:16.784Z,1.25
2023-05-05T05:03:43.236Z,1.38
2023-05-05T05:06:09.644Z,1.43
2023-05-05T05:08:36.472Z,1.05
2023-05-05T05:11:02.873Z,1.42
2023-05-05T05:13:29.236Z,2.00
2023-05-05T05:15:55.665Z,1.35
2023-05-05T05:18:22.030Z,2.13
2023-05-05T05:20:48.360Z,2.25
2023-05-05T05:23:14.701Z,2.05
2023-05-05T05:25:42.321Z,1.88
2023-05-05T05:28:10.774Z,1.60
2023-05-05T05:30:37.507Z,3.00
2023-05-05T05:33:04.425Z,2.00
2023-05-05T05:35:31.519Z,2.03
2023-05-05T05:37:57.868Z,1.70
2023-05-05T05:40:24.243Z,1.75
2023-05-05T05:42:50.588Z,1.90
2023-05-05T05:45:16.942Z,1.45
2023-05-05T05:47:43.345Z,2.10
2023-05-05T05:50:10.011Z,1.95
2023-05-05T05:52:36.838Z,1.88
2023-05-05T05:55:03.319Z,2.53
2023-05-05T05:57:29.681Z,2.33
2023-05-05T05:59:56.478Z,2.72
2023-05-05T06:02:22.980Z,1.80
2023-05-05T06:04:49.468Z,1.30
2023-05-05T06:07:15.871Z,1.80
2023-05-05T06:09:42.270Z,2.35
2023-05-05T06:12:08.703Z,2.65
2023-05-05T06:14:35.080Z,2.10
2023-05-05T06:17:01.490Z,2.08
2023-05-05T06:19:27.869Z,2.73
2023-05-05T06:21:54.198Z,2.38
2023-05-05T06:24:20.571Z,1.77
2023-05-05T06:26:46.920Z,2.08
2023-05-05T06:29:13.260Z,3.55
2023-05-05T06:31:39.651Z,1.57
2023-05-05T06:34:06.028Z,1.67
2023-05-05T06:36:32.480Z,1.95
2023-05-05T06:38:58.947Z,1.45
2023-05-05T06:41:25.325Z,1.55
2023-05-05T06:43:51.669Z,1.87
2023-05-05T06:46:18.160Z,1.27
2023-05-05T06:48:44.859Z,1.65
2023-05-05T06:51:11.217Z,1.65
2023-05-05T06:53:37.640Z,1.48
2023-05-05T06:56:04.093Z,2.83
2023-05-05T06:58:31.608Z,2.08
2023-05-05T07:00:58.034Z,1.60
2023-05-05T07:03:24.928Z,2.97
2023-05-05T07:05:51.482Z,2.13
2023-05-05T07:08:17.880Z,2.07
2023-05-05T07:10:44.307Z,2.88
2023-05-05T07:13:10.792Z,2.08
2023-05-05T07:15:37.659Z,1.60
2023-05-05T07:18:04.194Z,2.05
2023-05-05T07:20:30.622Z,1.50
2023-05-05T07:22:57.078Z,1.50
2023-05-05T07:25:23.444Z,1.65
2023-05-05T07:27:50.070Z,2.13
2023-05-05T07:30:18.832Z,4.85
2023-05-05T07:32:45.948Z,4.80
2023-05-05T07:35:12.769Z,8.05
2023-05-05T07:37:39.187Z,9.95
2023-05-05T07:40:06.140Z,3.85
2023-05-05T07:42:32.740Z,2.67
2023-05-05T07:44:59.101Z,2.30
2023-05-05T07:47:25.857Z,2.15
2023-05-05T07:49:52.234Z,2.60
2023-05-05T07:52:19.426Z,2.85
2023-05-05T07:54:47.758Z,2.80
2023-05-05T07:57:14.167Z,2.57
2023-05-05T07:59:43.403Z,2.33
2023-05-05T08:02:10.284Z,2.65
2023-05-05T08:04:36.757Z,4.15
2023-05-05T08:07:03.157Z,3.60
2023-05-05T08:09:29.493Z,2.60
2023-05-05T08:11:55.834Z,2.90
2023-05-05T08:14:22.288Z,3.30
2023-05-05T08:16:48.658Z,2.33
2023-05-05T08:19:27.542Z,3.05
2023-05-05T08:21:56.171Z,2.63
2023-05-05T08:24:22.578Z,3.35
2023-05-05T08:26:49.216Z,3.13
2023-05-05T08:29:15.798Z,4.05
2023-05-05T08:31:43.049Z,2.88
2023-05-05T08:34:09.471Z,3.10
2023-05-05T08:36:35.885Z,3.05
2023-05-05T08:39:02.322Z,3.45
2023-05-05T08:41:28.778Z,3.25
2023-05-05T08:43:55.342Z,2.65
2023-05-05T08:46:22.044Z,3.00
2023-05-05T08:48:48.608Z,3.22
2023-05-05T08:51:19.450Z,2.90
2023-05-05T08:53:56.076Z,3.25
2023-05-05T08:56:22.961Z,2.80
2023-05-05T08:58:50.088Z,2.93
2023-05-05T09:01:17.897Z,3.55
2023-05-05T09:03:44.943Z,3.10
2023-05-05T09:06:11.610Z,3.22
2023-05-05T09:08:38.434Z,2.78
2023-05-05T09:11:05.212Z,4.00
2023-05-05T09:13:32.454Z,2.72
2023-05-05T09:15:59.071Z,3.92
2023-05-05T09:18:25.775Z,3.15
2023-05-05T09:20:52.238Z,3.17
2023-05-05T09:23:19.826Z,3.67
2023-05-05T09:25:47.238Z,2.80
2023-05-05T09:28:14.331Z,2.80
2023-05-05T09:30:41.388Z,4.72
2023-05-05T09:33:08.014Z,5.28
2023-05-05T09:35:43.398Z,3.30
2023-05-05T09:38:11.675Z,3.28
2023-05-05T09:40:44.512Z,5.22
2023-05-05T09:43:11.020Z,3.08
2023-05-05T09:45:37.418Z,3.15
2023-05-05T09:48:04.857Z,2.87
2023-05-05T09:50:41.982Z,3.10
2023-05-05T09:53:08.345Z,3.08
2023-05-05T09:55:36.015Z,3.03
2023-05-05T09:58:17.068Z,2.72
2023-05-05T10:00:43.589Z,2.70
2023-05-05T10:03:09.971Z,3.05
2023-05-05T10:05:46.831Z,3.20
2023-05-05T10:08:13.658Z,3.08
2023-05-05T10:10:47.667Z,2.20
2023-05-05T10:13:15.538Z,2.40
2023-05-05T10:15:43.848Z,3.10
2023-05-05T10:18:10.474Z,3.10
2023-05-05T10:20:38.662Z,2.83
2023-05-05T10:23:06.909Z,3.65
2023-05-05T10:25:37.766Z,3.03
2023-05-05T10:28:06.014Z,3.88
2023-05-05T10:30:33.497Z,3.13
2023-05-05T10:33:27.264Z,4.15
2023-05-05T10:35:53.100Z,2.97
2023-05-05T10:38:19.821Z,3.07
2023-05-05T10:40:48.097Z,3.13
2023-05-05T10:43:14.657Z,2.90
2023-05-05T10:45:41.653Z,3.97
2023-05-05T10:48:10.128Z,3.63
2023-05-05T10:50:39.059Z,2.83
2023-05-05T10:53:14.372Z,3.03
2023-05-05T10:56:00.774Z,3.95
2023-05-05T10:58:43.656Z,2.88
2023-05-05T11:01:26.914Z,3.10
2023-05-05T11:04:13.240Z,3.00
2023-05-05T11:06:39.589Z,4.75
2023-05-05T11:09:14.889Z,4.25
2023-05-05T11:12:01.588Z,3.05
2023-05-05T11:14:27.971Z,2.53
2023-05-05T11:16:55.140Z,3.33
2023-05-05T11:19:30.502Z,3.20
2023-05-05T11:22:00.119Z,3.08
2023-05-05T11:24:29.264Z,5.68
2023-05-05T11:26:55.625Z,3.17
2023-05-05T11:29:21.970Z,3.20
2023-05-05T11:32:08.307Z,3.72
2023-05-05T11:34:34.754Z,3.45
2023-05-05T11:37:03.140Z,3.22
2023-05-05T11:39:33.400Z,3.30
2023-05-05T11:42:10.141Z,3.20
2023-05-05T11:44:37.441Z,4.68
2023-05-05T11:47:23.770Z,3.65
2023-05-05T11:49:50.240Z,3.47
2023-05-05T11:52:16.754Z,4.18
2023-05-05T11:54:51.404Z,3.10
2023-05-05T11:57:21.120Z,4.32
2023-05-05T11:59:49.813Z,3.47
2023-05-05T12:02:16.915Z,3.00
2023-05-05T12:04:43.341Z,3.08
2023-05-05T12:07:14.464Z,4.67
2023-05-05T12:09:42.599Z,4.03
2023-05-05T12:12:09.974Z,3.10
2023-05-05T12:14:36.362Z,3.53
2023-05-05T12:17:09.776Z,3.05
2023-05-05T12:19:36.282Z,3.70
2023-05-05T12:22:03.138Z,4.63
2023-05-05T12:24:31.080Z,3.20
2023-05-05T12:27:06.614Z,2.97
2023-05-05T12:29:32.991Z,3.80
2023-05-05T12:32:00.305Z,2.53
2023-05-05T12:34:27.339Z,3.60
2023-05-05T12:36:53.795Z,3.42
2023-05-05T12:39:20.576Z,3.28
2023-05-05T12:41:46.939Z,4.03
2023-05-05T12:44:13.334Z,3.33
2023-05-05T12:46:47.460Z,3.22
2023-05-05T12:49:13.945Z,4.88
2023-05-05T12:51:52.171Z,2.30
2023-05-05T12:54:18.561Z,3.30
2023-05-05T12:56:45.576Z,3.20
2023-05-05T12:59:28.550Z,4.20
2023-05-05T13:01:55.717Z,3.10
2023-05-05T13:04:23.273Z,2.90
2023-05-05T13:06:50.882Z,3.53
2023-05-05T13:09:25.722Z,3.50
2023-05-05T13:11:52.739Z,3.88
2023-05-05T13:14:19.130Z,3.10
2023-05-05T13:16:45.622Z,5.10
2023-05-05T13:19:12.000Z,3.38
2023-05-05T13:21:38.396Z,4.23
2023-05-05T13:24:21.512Z,4.32
2023-05-05T13:26:52.225Z,3.30
2023-05-05T13:29:18.691Z,3.65
2023-05-05T13:31:45.552Z,3.88
2023-05-05T13:34:12.107Z,3.87
2023-05-05T13:36:38.459Z,3.30
2023-05-05T13:39:04.814Z,4.15
2023-05-05T13:41:31.222Z,3.53
2023-05-05T13:43:57.571Z,3.30
2023-05-05T13:46:23.947Z,2.80
2023-05-05T13:48:54.594Z,3.70
2023-05-05T13:51:22.697Z,3.90
2023-05-05T13:53:49.079Z,3.15
2023-05-05T13:56:15.473Z,4.57
2023-05-05T13:58:42.487Z,3.77
2023-05-05T14:01:10.145Z,3.45
2023-05-05T14:03:36.668Z,3.85
2023-05-05T14:06:03.025Z,3.47
2023-05-05T14:08:29.535Z,5.38
2023-05-05T14:10:55.900Z,2.80
2023-05-05T14:13:22.935Z,3.05
2023-05-05T14:15:50.672Z,6.63
2023-05-05T14:18:17.112Z,3.15
2023-05-05T14:20:43.440Z,5.05
2023-05-05T14:23:09.780Z,3.90
2023-05-05T14:25:36.146Z,3.97
2023-05-05T14:28:02.514Z,3.17
2023-05-05T14:30:28.970Z,2.90
2023-05-05T14:32:55.344Z,3.78
2023-05-05T14:35:21.749Z,3.13
2023-05-05T14:37:48.124Z,3.50
2023-05-05T14:40:14.479Z,3.42
2023-05-05T14:42:40.809Z,3.85
2023-05-05T14:45:08.825Z,3.67
2023-05-05T14:47:35.472Z,3.00
2023-05-05T14:50:01.854Z,3.60
2023-05-05T14:52:28.783Z,3.13
2023-05-05T14:54:55.187Z,3.65
2023-05-05T14:57:21.534Z,3.00
2023-05-05T14:59:51.839Z,3.60
2023-05-05T15:02:18.725Z,4.25
2023-05-05T15:04:45.137Z,4.13
2023-05-05T15:07:11.545Z,3.40
2023-05-05T15:09:37.941Z,3.13
2023-05-05T15:12:04.463Z,2.73
2023-05-05T15:14:30.886Z,3.00
2023-05-05T15:16:57.412Z,3.33
2023-05-05T15:19:23.734Z,3.75
2023-05-05T15:21:53.204Z,4.07
2023-05-05T15:24:20.425Z,3.30
2023-05-05T15:26:46.761Z,2.70
2023-05-05T15:29:13.165Z,3.45
2023-05-05T15:31:39.549Z,2.95
2023-05-05T15:34:06.008Z,2.25
2023-05-05T15:36:32.346Z,3.77
2023-05-05T15:38:58.719Z,3.80
2023-05-05T15:41:29.170Z,3.10
2023-05-05T15:43:55.565Z,2.88
2023-05-05T15:46:22.004Z,5.32
2023-05-05T15:48:48.365Z,4.77
2023-05-05T15:51:14.696Z,3.88
2023-05-05T15:53:41.082Z,3.22
2023-05-05T15:56:07.492Z,5.00
2023-05-05T15:58:33.808Z,2.60
2023-05-05T16:01:00.262Z,2.83
2023-05-05T16:03:26.817Z,2.45
2023-05-05T16:05:53.244Z,3.15
2023-05-05T16:08:19.646Z,2.85
2023-05-05T16:10:46.084Z,3.78
2023-05-05T16:13:12.521Z,2.97
2023-05-05T16:15:38.940Z,6.30
2023-05-05T16:18:05.416Z,4.68
2023-05-05T16:20:31.845Z,3.15
2023-05-05T16:22:58.210Z,5.00
2023-05-05T16:25:24.572Z,3.00
2023-05-05T16:27:50.948Z,2.22
2023-05-05T16:30:17.309Z,2.45
2023-05-05T16:32:43.963Z,3.58
2023-05-05T16:35:11.812Z,2.92
2023-05-05T16:37:38.322Z,3.03
2023-05-05T16:40:05.979Z,2.40
2023-05-05T16:42:32.315Z,1.88
2023-05-05T16:44:58.679Z,1.83
2023-05-05T16:47:25.441Z,2.40
2023-05-05T16:49:52.556Z,4.00
2023-05-05T16:52:18.979Z,2.33
2023-05-05T16:54:45.393Z,2.15
2023-05-05T16:57:12.766Z,2.30
2023-05-05T16:59:41.605Z,3.22
2023-05-05T17:02:08.062Z,3.07
2023-05-05T17:04:34.415Z,5.47
2023-05-05T17:07:02.791Z,4.03
2023-05-05T17:09:29.207Z,5.10
2023-05-05T17:11:55.934Z,4.13
2023-05-05T17:14:22.301Z,3.57
2023-05-05T17:16:48.656Z,4.05
2023-05-05T17:19:14.976Z,3.22
2023-05-05T17:21:43.169Z,3.20
2023-05-05T17:24:09.593Z,3.45
2023-05-05T17:26:36.041Z,2.90
2023-05-05T17:29:02.804Z,3.13
2023-05-05T17:31:29.240Z,3.30
2023-05-05T17:33:55.956Z,2.65
2023-05-05T17:36:22.992Z,3.03
2023-05-05T17:38:49.369Z,3.13
2023-05-05T17:41:16.467Z,4.40
2023-05-05T17:43:42.832Z,3.50
2023-05-05T17:46:09.269Z,3.10
2023-05-05T17:48:35.869Z,1.65
2023-05-05T17:51:02.278Z,2.43
2023-05-05T17:53:28.648Z,1.90
2023-05-05T17:55:55.074Z,2.05
2023-05-05T17:58:21.629Z,2.15
2023-05-05T18:00:48.089Z,2.25
2023-05-05T18:03:14.518Z,3.33
2023-05-05T18:05:40.944Z,2.83
2023-05-05T18:08:07.350Z,2.78
2023-05-05T18:10:33.711Z,2.10
2023-05-05T18:13:00.177Z,2.40
2023-05-05T18:15:26.569Z,2.70
2023-05-05T18:17:53.854Z,2.75
2023-05-05T18:20:20.300Z,3.58
2023-05-05T18:22:46.884Z,3.05
2023-05-05T18:25:13.505Z,2.20
2023-05-05T18:27:43.570Z,2.93
2023-05-05T18:30:10.102Z,2.35
2023-05-05T18:32:37.234Z,1.75
2023-05-05T18:35:03.907Z,2.22
2023-05-05T18:37:30.273Z,1.88
2023-05-05T18:39:56.607Z,2.40
2023-05-05T18:42:23.131Z,2.70
2023-05-05T18:44:49.553Z,2.80
2023-05-05T18:47:16.104Z,2.63
2023-05-05T18:49:45.548Z,5.03
2023-05-05T18:52:11.953Z,3.90
2023-05-05T18:54:38.284Z,3.80
2023-05-05T18:57:04.702Z,17.02
2023-05-05T18:59:31.085Z,24.98
2023-05-05T19:01:59.481Z,24.95
2023-05-05T19:04:31.330Z,25.63
2023-05-05T19:06:58.609Z,22.55
2023-05-05T19:09:24.989Z,12.27
2023-05-05T19:11:51.520Z,9.80
2023-05-05T19:14:17.869Z,11.07
2023-05-05T19:16:44.360Z,15.13
2023-05-05T19:19:12.888Z,9.85
2023-05-05T19:21:39.381Z,7.57
2023-05-05T19:24:07.193Z,10.98
2023-05-05T19:26:33.593Z,15.02
2023-05-05T19:29:00.024Z,15.20
2023-05-05T19:31:27.840Z,12.82
2023-05-05T19:34:02.400Z,9.43
2023-05-05T19:36:29.977Z,11.10
2023-05-05T19:38:56.299Z,9.52
2023-05-05T19:41:22.815Z,10.80
2023-05-05T19:43:49.966Z,8.38
2023-05-05T19:46:17.124Z,9.32
2023-05-05T19:48:44.059Z,7.43
2023-05-05T19:51:10.385Z,8.90
2023-05-05T19:53:36.765Z,12.53
2023-05-05T19:56:04.799Z,14.35
2023-05-05T19:58:31.397Z,9.05
2023-05-05T20:00:57.782Z,10.32
2023-05-05T20:03:24.335Z,7.05
2023-05-05T20:05:50.928Z,7.80
2023-05-05T20:08:17.261Z,7.80
2023-05-05T20:10:43.640Z,8.90
2023-05-05T20:13:10.064Z,9.30
2023-05-05T20:15:36.502Z,5.05
2023-05-05T20:18:03.033Z,7.40
2023-05-05T20:20:29.813Z,7.28
2023-05-05T20:22:56.249Z,8.27
2023-05-05T20:25:22.607Z,8.45
2023-05-05T20:27:49.026Z,7.88
2023-05-05T20:30:15.433Z,7.50
2023-05-05T20:32:41.944Z,7.70
2023-05-05T20:35:08.736Z,6.25
2023-05-05T20:37:35.076Z,6.82
2023-05-05T20:40:01.491Z,6.30
2023-05-05T20:42:29.529Z,6.57
2023-05-05T20:44:56.009Z,7.55
2023-05-05T20:47:22.411Z,6.00
2023-05-05T20:49:48.756Z,6.00
2023-05-05T20:52:15.113Z,6.18
2023-05-05T20:54:41.507Z,4.53
2023-05-05T20:57:07.835Z,5.88
2023-05-05T20:59:34.269Z,3.15
2023-05-05T21:02:01.014Z,5.85
2023-05-05T21:04:27.435Z,3.38
2023-05-05T21:06:53.760Z,5.63
2023-05-05T21:09:21.535Z,3.92
2023-05-05T21:11:49.092Z,4.95
2023-05-05T21:14:15.458Z,3.33
2023-05-05T21:16:42.656Z,3.33
2023-05-05T21:19:09.047Z,3.77
2023-05-05T21:21:35.449Z,4.18
2023-05-05T21:24:01.870Z,4.55
2023-05-05T21:26:28.302Z,3.10
2023-05-05T21:28:54.641Z,3.78
2023-05-05T21:31:22.434Z,4.80
2023-05-05T21:33:49.017Z,3.65
2023-05-05T21:36:17.461Z,3.08
2023-05-05T21:38:43.862Z,3.33
2023-05-05T21:41:10.283Z,4.85
2023-05-05T21:43:36.632Z,3.53
2023-05-05T21:46:03.710Z,3.78
2023-05-05T21:48:31.268Z,3.38
2023-05-05T21:50:57.651Z,3.13
2023-05-05T21:53:24.056Z,4.15
2023-05-05T21:55:50.565Z,2.53
2023-05-05T21:58:16.909Z,3.15
2023-05-05T22:00:43.545Z,5.35
2023-05-05T22:03:10.125Z,3.40
2023-05-05T22:05:36.567Z,2.95
2023-05-05T22:08:02.997Z,3.60
2023-05-05T22:10:29.554Z,3.47
2023-05-05T22:12:56.195Z,3.25
2023-05-05T22:15:25.345Z,3.20
2023-05-05T22:17:53.938Z,2.92
2023-05-05T22:20:20.319Z,3.23
2023-05-05T22:22:46.708Z,3.00
2023-05-05T22:25:13.084Z,2.70
2023-05-05T22:27:39.408Z,2.25
2023-05-05T22:30:06.342Z,3.25
2023-05-05T22:32:32.721Z,2.70
2023-05-05T22:34:59.085Z,2.80
2023-05-05T22:37:25.448Z,2.63
2023-05-05T22:39:51.814Z,2.60
2023-05-05T22:42:18.144Z,2.63
2023-05-05T22:44:44.520Z,3.27
2023-05-05T22:47:11.333Z,2.58
2023-05-05T22:49:37.822Z,2.88
2023-05-05T22:52:04.218Z,2.78
2023-05-05T22:54:30.656Z,3.10
2023-05-05T22:56:57.023Z,2.40
2023-05-05T22:59:23.470Z,2.58
2023-05-05T23:01:49.861Z,2.40
2023-05-05T23:04:16.284Z,2.30
2023-05-05T23:06:42.892Z,3.47
2023-05-05T23:09:09.341Z,2.43
2023-05-05T23:11:35.777Z,2.08
2023-05-05T23:14:02.167Z,3.20
2023-05-05T23:16:28.580Z,3.28
2023-05-05T23:18:55.048Z,2.53
2023-05-05T23:21:21.466Z,2.50
2023-05-05T23:23:48.475Z,2.40
2023-05-05T23:26:14.805Z,1.85
2023-05-05T23:28:41.214Z,2.80
2023-05-05T23:31:08.585Z,2.40
2023-05-05T23:33:34.946Z,2.50
2023-05-05T23:36:01.314Z,1.65
2023-05-05T23:38:27.740Z,2.95
2023-05-05T23:40:54.208Z,2.20
2023-05-05T23:43:20.644Z,2.45
2023-05-05T23:45:47.688Z,2.90
2023-05-05T23:48:14.050Z,2.30
2023-05-05T23:50:40.490Z,1.77
2023-05-05T23:53:06.905Z,4.85
2023-05-05T23:55:33.258Z,3.00
2023-05-05T23:57:59.676Z,2.87
